Terminal Aerodrome Forecast
Issued by NWS

Home | Current Version | Previous Version | Text Only | Print | Product List | Glossary On
Versions: 1 2 3 4 5 6 7 8 9 10 11 12 13 14 15 16 17 18 19 20 21 22 23 24 25 26 27 28 29
000
FTUS41 KOKX 101440 AAA
TAFSWF
TAF AMD
KSWF 101440Z 1015/1118 29010KT P6SM SCT035 BKN200
     FM101600 29010KT P6SM BKN035
     FM102200 29007KT P6SM BKN035
     FM110100 29005KT P6SM SCT035
     FM111100 29004KT P6SM BKN100
     FM111400 25004KT P6SM VCSH OVC070
     FM111600 23006KT 6SM -SN OVC050=

USA.gov is the U.S. government's official web portal to all federal, state and local government web resources and services.